Black, Texas
Current Conditions -  °F | °C
As of 5:55 PM on Friday 28 Nov 2014 (Local Time) from KCVN Reporting Station
Clear Clear  
Wind Chill: 59°   Ceiling: Unl
Heat Index: 59°   Visibility: 10mi
Dew Point: 10°   Wind: 13mph
Humidity: 15%   Direction: 240°WSW
Pressure: 29.98"   Gusts: NA
Location:  34.6538°N, 102.747°W
Report Text: KCVN 282355Z 24011KT 10SM CLR 15/M12 A2998 RMK AO1 10250 20150 402500020 57007
Loading
Personal Weather Stations






























Interactive Weather Map New forecast layout! Learn more

10-Day Weather Forecast

Advertisements
Track Severe Weather on mobile